Time;durP1;ratioP1;P1;durP2;ratioP2;P2;SDS_P1;SDS_P2;PMS_P1;PMS_P2;Temp;Humidity;BMP_temperature;BMP_pressure;BME280_temperature;BME280_humidity;BME280_pressure;Samples;Min_cycle;Max_cycle;Signal;HPM_P1;HPM_P2
2021/06/17 00:11:02;;;;;;;3.33;3.03;;;15.50;98.30;;;;;;4725748;30;20528;-87
2021/06/17 00:13:35;;;;;;;5.18;4.15;;;15.40;98.20;;;;;;4732371;30;20105;-87
2021/06/17 00:16:06;;;;;;;4.07;2.95;;;15.40;98.70;;;;;;4732694;30;20445;-88
2021/06/17 00:18:34;;;;;;;5.25;4.03;;;15.40;98.90;;;;;;4732153;30;20053;-87
2021/06/17 00:21:03;;;;;;;6.07;5.57;;;15.30;99.00;;;;;;4727015;30;20053;-87
2021/06/17 00:23:33;;;;;;;4.53;3.40;;;15.40;99.20;;;;;;4732659;30;20416;-85
2021/06/17 00:26:02;;;;;;;8.10;3.65;;;15.40;99.60;;;;;;4731898;30;20045;-86
2021/06/17 00:28:31;;;;;;;3.88;3.50;;;15.40;99.40;;;;;;4733409;30;20064;-86
2021/06/17 00:31:01;;;;;;;5.43;4.93;;;15.40;99.40;;;;;;4731185;30;20065;-87
2021/06/17 00:33:29;;;;;;;4.38;3.88;;;15.40;99.50;;;;;;4740115;30;20048;-86
2021/06/17 00:35:57;;;;;;;3.45;2.85;;;15.40;99.50;;;;;;4749507;30;20514;-87
2021/06/17 00:38:29;;;;;;;3.88;3.47;;;15.40;99.60;;;;;;4731963;30;20059;-90
2021/06/17 00:41:11;;;;;;;4.55;3.67;;;15.20;99.80;;;;;;4727631;30;20534;-90
2021/06/17 00:43:41;;;;;;;5.22;4.18;;;15.00;99.90;;;;;;4715279;30;20061;-87
2021/06/17 00:46:12;;;;;;;8.57;3.95;;;15.00;99.90;;;;;;4705188;30;20084;-87
2021/06/17 00:48:40;;;;;;;6.15;3.67;;;15.00;99.90;;;;;;4716202;30;20074;-85
2021/06/17 00:51:08;;;;;;;5.10;4.60;;;15.00;99.90;;;;;;4722793;30;20064;-87
2021/06/17 00:53:36;;;;;;;4.82;4.43;;;15.10;99.90;;;;;;4749284;30;20419;-87
2021/06/17 00:56:07;;;;;;;6.82;6.20;;;15.10;99.90;;;;;;4748611;30;20060;-87
2021/06/17 00:58:35;;;;;;;4.47;4.07;;;15.00;99.90;;;;;;4748216;30;20056;-85
2021/06/17 01:01:03;;;;;;;5.10;4.60;;;15.00;99.90;;;;;;4762112;30;20499;-86
2021/06/17 01:03:31;;;;;;;4.72;4.22;;;15.00;99.90;;;;;;4750345;30;20056;-86
2021/06/17 01:05:59;;;;;;;6.63;5.93;;;15.00;99.90;;;;;;4749964;30;20067;-86
2021/06/17 01:08:46;;;;;;;5.47;4.97;;;15.00;99.90;;;;;;4761291;30;20067;-87
2021/06/17 01:11:17;;;;;;;11.80;4.68;;;15.00;99.90;;;;;;4755082;30;20426;-89
2021/06/17 01:14:07;;;;;;;5.72;4.70;;;15.00;99.90;;;;;;4767745;30;20059;-86
2021/06/17 01:16:37;;;;;;;10.25;4.13;;;15.00;99.90;;;;;;4753285;30;20059;-86
2021/06/17 01:19:32;;;;;;;5.78;4.50;;;15.00;99.90;;;;;;4752832;30;20059;-86
2021/06/17 01:22:02;;;;;;;5.57;5.07;;;15.10;99.90;;;;;;4738300;30;20051;-86
2021/06/17 01:24:52;;;;;;;5.93;5.43;;;15.10;99.90;;;;;;4770842;29;20060;-86
2021/06/17 01:27:54;;;;;;;7.32;5.60;;;15.10;99.90;;;;;;4770680;30;20487;-87
2021/06/17 01:30:24;;;;;;;5.88;4.75;;;15.10;99.90;;;;;;4769276;30;20055;-87
2021/06/17 01:32:57;;;;;;;5.55;5.05;;;15.00;99.90;;;;;;4765844;30;20047;-88
2021/06/17 01:35:28;;;;;;;5.25;4.75;;;15.00;99.90;;;;;;4735686;30;20085;-86
2021/06/17 01:38:00;;;;;;;6.65;6.05;;;14.90;99.90;;;;;;4750623;30;20055;-86
2021/06/17 01:40:30;;;;;;;5.28;4.63;;;14.80;99.90;;;;;;4768441;29;20070;-86
2021/06/17 01:42:58;;;;;;;14.20;8.18;;;14.70;99.90;;;;;;4770358;30;20052;-86
2021/06/17 01:45:27;;;;;;;5.55;5.05;;;14.70;99.90;;;;;;4768870;30;20498;-87
2021/06/17 01:47:57;;;;;;;16.52;6.22;;;14.70;99.90;;;;;;4753885;30;20090;-87
2021/06/17 01:50:27;;;;;;;6.07;5.10;;;14.60;99.90;;;;;;4748831;30;20514;-86
2021/06/17 01:52:56;;;;;;;9.63;5.00;;;14.60;99.90;;;;;;4751839;30;20042;-88
2021/06/17 01:55:30;;;;;;;7.82;5.40;;;14.70;99.90;;;;;;4752285;30;20383;-87
2021/06/17 01:58:05;;;;;;;5.60;4.72;;;14.50;99.90;;;;;;4751775;30;20491;-88
2021/06/17 02:00:36;;;;;;;5.05;4.65;;;14.40;99.90;;;;;;4751503;30;20071;-86
2021/06/17 02:03:08;;;;;;;5.60;5.18;;;14.40;99.90;;;;;;4751616;30;20067;-86
2021/06/17 02:05:37;;;;;;;5.40;4.88;;;14.40;99.90;;;;;;4749898;30;20052;-86
2021/06/17 02:08:07;;;;;;;5.55;4.95;;;14.40;99.90;;;;;;4752285;30;20067;-87
2021/06/17 02:10:39;;;;;;;8.15;4.47;;;14.50;99.90;;;;;;4748971;30;20051;-86
2021/06/17 02:13:11;;;;;;;5.50;5.10;;;14.40;99.90;;;;;;4751393;30;20045;-86
2021/06/17 02:15:43;;;;;;;5.75;5.20;;;14.50;99.90;;;;;;4751595;30;20051;-86
2021/06/17 02:18:13;;;;;;;5.95;5.43;;;14.50;99.90;;;;;;4750247;30;20408;-86
2021/06/17 02:20:41;;;;;;;6.05;5.50;;;14.50;99.90;;;;;;4765989;30;20071;-86
2021/06/17 02:23:15;;;;;;;5.55;5.00;;;14.30;99.90;;;;;;4751723;30;20060;-86
2021/06/17 02:25:45;;;;;;;8.75;7.43;;;14.20;99.90;;;;;;4751468;30;20056;-87
2021/06/17 02:28:18;;;;;;;8.77;5.90;;;14.20;99.90;;;;;;4751076;30;20389;-85
2021/06/17 02:30:49;;;;;;;8.45;6.20;;;14.20;99.90;;;;;;4750647;30;20290;-86
2021/06/17 02:33:20;;;;;;;6.03;5.53;;;14.20;99.90;;;;;;4756337;30;20051;-86
2021/06/17 02:35:52;;;;;;;7.72;6.18;;;14.20;99.90;;;;;;4768172;30;20391;-86
2021/06/17 02:38:29;;;;;;;10.40;4.78;;;14.30;99.90;;;;;;4765432;30;20078;-86
2021/06/17 02:41:07;;;;;;;7.20;5.72;;;14.30;99.90;;;;;;4751162;30;20055;-85
2021/06/17 02:43:40;;;;;;;6.82;5.55;;;14.30;99.90;;;;;;4749724;30;20059;-86
2021/06/17 02:46:08;;;;;;;7.72;5.25;;;14.30;99.90;;;;;;4749484;30;20055;-86
2021/06/17 02:48:36;;;;;;;7.78;5.38;;;14.30;99.90;;;;;;4750600;30;20075;-87
2021/06/17 02:51:04;;;;;;;5.60;5.05;;;14.30;99.90;;;;;;4756510;30;20055;-85
2021/06/17 02:53:32;;;;;;;5.82;5.22;;;14.30;99.90;;;;;;4768166;30;20062;-87
2021/06/17 02:56:05;;;;;;;6.28;5.68;;;14.30;99.90;;;;;;4768863;30;20063;-87
2021/06/17 02:58:57;;;;;;;12.50;7.65;;;14.20;99.90;;;;;;4767558;30;20055;-85
2021/06/17 03:01:33;;;;;;;7.28;6.55;;;14.10;99.90;;;;;;4767796;30;20048;-86
2021/06/17 03:04:20;;;;;;;7.68;4.90;;;14.00;99.90;;;;;;4768550;30;20063;-86
2021/06/17 03:06:52;;;;;;;5.90;5.22;;;13.90;99.90;;;;;;4767094;30;20052;-88
2021/06/17 03:09:34;;;;;;;6.82;6.18;;;13.90;99.90;;;;;;4767911;30;20051;-86
2021/06/17 03:12:02;;;;;;;7.18;6.30;;;13.90;99.90;;;;;;4768694;30;20063;-86
2021/06/17 03:14:37;;;;;;;6.95;6.28;;;13.90;99.90;;;;;;4750928;30;20055;-86
2021/06/17 03:17:08;;;;;;;7.43;5.60;;;13.90;99.90;;;;;;4753560;30;20074;-86
2021/06/17 03:19:37;;;;;;;6.80;6.20;;;13.90;99.90;;;;;;4767269;30;20066;-86
2021/06/17 03:22:08;;;;;;;7.00;6.38;;;13.80;99.90;;;;;;4777438;30;20506;-86
2021/06/17 03:24:38;;;;;;;5.43;4.93;;;13.80;99.90;;;;;;4766718;29;20060;-86
2021/06/17 03:27:09;;;;;;;8.30;6.10;;;13.80;99.90;;;;;;4767530;30;20060;-87
2021/06/17 03:29:41;;;;;;;6.70;6.03;;;13.80;99.90;;;;;;4766882;30;20071;-86
2021/06/17 03:32:11;;;;;;;7.10;6.40;;;13.80;99.90;;;;;;4767760;30;20506;-86
2021/06/17 03:34:42;;;;;;;9.32;6.40;;;13.70;99.90;;;;;;4767833;30;20055;-88
2021/06/17 03:37:16;;;;;;;7.55;6.78;;;13.70;99.90;;;;;;4775974;30;20053;-87
2021/06/17 03:39:46;;;;;;;10.77;7.13;;;13.70;99.90;;;;;;4786159;30;20063;-86
2021/06/17 03:42:15;;;;;;;6.88;5.53;;;13.70;99.90;;;;;;4784142;30;20066;-86
2021/06/17 03:44:44;;;;;;;6.50;5.82;;;13.80;99.90;;;;;;4779495;30;20071;-86
2021/06/17 03:47:13;;;;;;;10.32;6.85;;;13.80;99.90;;;;;;4752341;30;20057;-86
2021/06/17 03:49:43;;;;;;;7.55;5.28;;;13.90;99.90;;;;;;4767482;30;20063;-86
2021/06/17 03:52:15;;;;;;;9.05;5.20;;;14.00;99.90;;;;;;4766563;30;20527;-86
2021/06/17 03:54:47;;;;;;;7.45;5.05;;;14.00;99.90;;;;;;4766391;30;20052;-87
2021/06/17 03:57:21;;;;;;;7.10;6.45;;;14.00;99.90;;;;;;4767431;30;20060;-88
2021/06/17 03:59:56;;;;;;;7.03;6.32;;;14.00;99.90;;;;;;4766476;30;20056;-87
2021/06/17 04:02:28;;;;;;;7.57;5.60;;;14.10;99.90;;;;;;4766926;30;20044;-87
2021/06/17 04:05:20;;;;;;;6.38;5.28;;;14.10;99.90;;;;;;4757773;30;20422;-86
2021/06/17 04:08:25;;;;;;;6.82;6.10;;;14.10;99.90;;;;;;4764661;30;20082;-86
2021/06/17 04:11:16;;;;;;;7.95;6.15;;;14.10;99.90;;;;;;4759818;30;20052;-86
2021/06/17 04:13:49;;;;;;;5.65;5.15;;;14.20;99.90;;;;;;4748927;30;20059;-86
2021/06/17 04:16:22;;;;;;;7.03;5.80;;;14.30;99.90;;;;;;4765497;29;20063;-86
2021/06/17 04:18:53;;;;;;;8.70;5.30;;;14.40;99.90;;;;;;4750102;30;20055;-87
2021/06/17 04:21:23;;;;;;;6.97;6.07;;;14.50;99.90;;;;;;4763394;30;20044;-86
2021/06/17 04:23:57;;;;;;;5.57;5.07;;;14.60;99.90;;;;;;4736493;30;20399;-86
2021/06/17 04:26:28;;;;;;;5.18;4.70;;;14.70;99.90;;;;;;4765493;30;20055;-87
2021/06/17 04:28:57;;;;;;;9.70;6.72;;;14.80;99.90;;;;;;4765093;30;20051;-87
2021/06/17 04:31:28;;;;;;;5.47;4.82;;;14.90;99.90;;;;;;4764809;30;20737;-86
2021/06/17 04:33:56;;;;;;;6.68;5.70;;;15.00;99.90;;;;;;4750209;30;20052;-86
2021/06/17 04:36:24;;;;;;;7.60;6.40;;;15.10;99.90;;;;;;4766875;30;20078;-86
2021/06/17 04:38:53;;;;;;;5.80;5.38;;;15.20;99.90;;;;;;4778901;29;20052;-87
2021/06/17 04:41:21;;;;;;;7.65;5.22;;;15.30;99.90;;;;;;4768139;30;20048;-87
2021/06/17 04:43:49;;;;;;;6.53;4.78;;;15.40;99.90;;;;;;4768665;30;20414;-87
2021/06/17 04:46:22;;;;;;;9.07;6.60;;;15.60;99.90;;;;;;4744131;30;20059;-82
2021/06/17 04:48:52;;;;;;;6.75;6.03;;;15.70;99.90;;;;;;4768620;30;20051;-84
2021/06/17 04:51:20;;;;;;;7.50;6.05;;;15.90;99.90;;;;;;4757544;30;20060;-84
2021/06/17 04:53:53;;;;;;;7.53;6.53;;;16.10;99.90;;;;;;4753127;30;20079;-86
2021/06/17 04:56:24;;;;;;;15.85;6.90;;;16.20;99.90;;;;;;4752929;30;20067;-81
2021/06/17 04:58:52;;;;;;;6.63;5.97;;;16.30;99.90;;;;;;4737656;30;20662;-81
2021/06/17 05:01:20;;;;;;;7.45;6.00;;;16.40;99.90;;;;;;4752058;30;20053;-83
2021/06/17 05:03:48;;;;;;;6.13;5.47;;;16.50;99.90;;;;;;4752775;30;20063;-81
2021/06/17 05:06:18;;;;;;;6.20;5.60;;;16.70;99.90;;;;;;4751415;30;20060;-82
2021/06/17 05:11:53;;;;;;;11.80;5.90;;;17.10;99.90;;;;;;4697817;30;20519;-81
2021/06/17 05:14:21;;;;;;;;;;;17.30;99.90;;;;;;4743324;30;20104;-83
2021/06/17 05:16:49;;;;;;;7.28;4.55;;;17.50;99.90;;;;;;4750593;30;19926;-84
2021/06/17 05:19:17;;;;;;;8.85;4.80;;;17.70;99.90;;;;;;4734975;30;20068;-84
2021/06/17 05:21:45;;;;;;;18.88;8.30;;;17.90;99.90;;;;;;4745355;30;20075;-85
2021/06/17 05:24:13;;;;;;;10.77;5.32;;;18.10;99.90;;;;;;4752101;30;20133;-85
2021/06/17 05:26:41;;;;;;;5.68;5.18;;;18.30;99.90;;;;;;4767396;30;20067;-84
2021/06/17 05:29:09;;;;;;;5.80;5.30;;;18.30;99.90;;;;;;4769307;30;20054;-87
2021/06/17 05:31:37;;;;;;;8.40;7.28;;;18.50;99.90;;;;;;4770505;30;20051;-86
2021/06/17 05:34:05;;;;;;;8.07;6.95;;;18.60;99.90;;;;;;4755473;30;20052;-87
2021/06/17 05:36:37;;;;;;;6.60;5.72;;;18.70;99.90;;;;;;4753897;30;20486;-88
2021/06/17 05:39:20;;;;;;;6.22;5.47;;;18.80;99.90;;;;;;4753160;30;20064;-86
2021/06/17 05:42:03;;;;;;;9.07;6.40;;;19.00;99.90;;;;;;4770567;30;20056;-87
2021/06/17 05:44:40;;;;;;;11.65;6.78;;;19.10;99.90;;;;;;4768718;30;20063;-86
2021/06/17 05:47:16;;;;;;;5.72;5.03;;;19.20;99.90;;;;;;4754912;30;20047;-87
2021/06/17 05:49:48;;;;;;;5.53;5.03;;;19.20;99.90;;;;;;4769046;30;20503;-87
2021/06/17 05:52:21;;;;;;;9.43;6.78;;;19.40;99.90;;;;;;4752100;30;20056;-87
2021/06/17 05:56:05;;;;;;;;;;;;;;;;;;;;;
2021/06/17 06:00:02;;;;;;;8.35;5.90;;;19.70;99.90;;;;;;4771840;30;20056;-88
2021/06/17 06:03:39;;;;;;;6.97;6.30;;;19.60;99.90;;;;;;4768612;30;20414;-88
2021/06/17 06:06:20;;;;;;;8.15;6.53;;;19.70;99.90;;;;;;4769890;30;20059;-87
2021/06/17 06:09:04;;;;;;;7.95;6.20;;;19.80;99.90;;;;;;4760343;30;20968;-88
2021/06/17 06:12:19;;;;;;;9.43;6.00;;;20.10;99.90;;;;;;4770557;30;20070;-88
2021/06/17 06:25:29;;;;;;;6.38;5.78;;;20.40;99.90;;;;;;4746323;30;20048;-88
2021/06/17 06:28:08;;;;;;;5.95;5.22;;;20.40;99.90;;;;;;4753353;30;20056;-88
2021/06/17 06:31:08;;;;;;;6.43;5.20;;;20.60;99.90;;;;;;4763418;30;20055;-87
2021/06/17 06:33:51;;;;;;;13.45;4.78;;;20.70;99.90;;;;;;4751914;30;20422;-89
2021/06/17 06:36:44;;;;;;;9.73;5.60;;;20.80;99.60;;;;;;4758310;29;20403;-89
2021/06/17 06:39:17;;;;;;;5.65;4.82;;;21.10;99.90;;;;;;4767872;30;20060;-86
2021/06/17 06:41:47;;;;;;;7.75;5.78;;;21.30;99.90;;;;;;4737667;30;20048;-86
2021/06/17 06:44:22;;;;;;;5.25;4.72;;;21.30;99.70;;;;;;4731293;30;20079;-87
2021/06/17 06:47:00;;;;;;;6.47;5.82;;;21.20;98.40;;;;;;4711604;30;20541;-87
2021/06/17 06:49:40;;;;;;;6.80;5.18;;;21.30;98.40;;;;;;4731898;30;20503;-88
2021/06/17 06:52:16;;;;;;;6.47;5.90;;;21.40;98.60;;;;;;4730603;30;20053;-86
2021/06/17 06:54:44;;;;;;;6.15;5.55;;;21.40;99.20;;;;;;4730850;30;20520;-84
2021/06/17 06:57:12;;;;;;;6.28;5.10;;;21.50;99.70;;;;;;4703126;30;20093;-80
2021/06/17 06:59:40;;;;;;;8.50;6.00;;;21.70;98.90;;;;;;4731025;30;20064;-81
2021/06/17 07:02:08;;;;;;;5.10;4.60;;;21.70;99.10;;;;;;4728125;30;20064;-80
2021/06/17 07:04:36;;;;;;;5.25;4.75;;;21.90;99.90;;;;;;4730290;30;20585;-80
2021/06/17 07:07:05;;;;;;;7.75;5.40;;;22.00;98.90;;;;;;4742418;30;20059;-80
2021/06/17 07:09:33;;;;;;;8.00;5.38;;;22.00;98.00;;;;;;4768482;30;20059;-81
2021/06/17 07:12:05;;;;;;;6.32;4.72;;;22.20;98.50;;;;;;4766659;30;20059;-85
2021/06/17 07:14:34;;;;;;;6.10;5.50;;;22.80;97.40;;;;;;4750438;29;20056;-85
2021/06/17 07:17:06;;;;;;;5.70;4.72;;;23.40;96.80;;;;;;4745529;30;20490;-85
2021/06/17 07:19:35;;;;;;;4.95;4.13;;;24.40;93.90;;;;;;4733688;30;20057;-85
2021/06/17 07:22:09;;;;;;;8.20;5.53;;;25.00;93.10;;;;;;4758717;30;20052;-85
2021/06/17 07:24:38;;;;;;;4.90;4.45;;;24.90;92.90;;;;;;4749189;30;20503;-85
2021/06/17 07:27:06;;;;;;;6.65;5.80;;;24.60;94.30;;;;;;4764476;30;20068;-84
2021/06/17 07:29:34;;;;;;;5.03;4.45;;;25.00;92.30;;;;;;4748602;30;20090;-84
2021/06/17 07:32:04;;;;;;;5.43;4.93;;;25.30;91.90;;;;;;4750421;30;20185;-87
2021/06/17 07:34:32;;;;;;;5.93;5.43;;;25.50;92.30;;;;;;4749823;30;20048;-85
2021/06/17 07:37:00;;;;;;;9.48;5.50;;;26.10;90.60;;;;;;4762863;30;20497;-85
2021/06/17 07:39:29;;;;;;;6.20;4.72;;;26.90;90.00;;;;;;4766809;30;20053;-85
2021/06/17 07:41:57;;;;;;;17.58;4.70;;;28.60;80.80;;;;;;4784745;30;20444;-85
2021/06/17 07:44:25;;;;;;;5.18;4.65;;;29.30;82.70;;;;;;4753431;30;20519;-83
2021/06/17 07:46:59;;;;;;;8.07;4.63;;;28.90;81.80;;;;;;4749979;30;20419;-85
2021/06/17 07:49:27;;;;;;;5.63;4.10;;;27.70;80.20;;;;;;4750062;30;20048;-86
2021/06/17 07:51:55;;;;;;;5.10;4.60;;;26.30;88.60;;;;;;4761683;30;20052;-86
2021/06/17 07:54:23;;;;;;;6.03;5.32;;;25.90;90.60;;;;;;4767828;29;20052;-84
2021/06/17 07:56:51;;;;;;;5.53;4.95;;;26.10;91.50;;;;;;4767790;30;20402;-85
2021/06/17 07:59:21;;;;;;;4.78;4.38;;;26.20;90.90;;;;;;4764087;30;20071;-85
2021/06/17 08:01:51;;;;;;;5.05;4.22;;;26.40;88.20;;;;;;4747696;30;20048;-85
2021/06/17 08:04:27;;;;;;;6.47;4.75;;;26.10;88.80;;;;;;4750184;30;20052;-85
2021/06/17 08:06:56;;;;;;;10.07;4.47;;;25.80;89.30;;;;;;4748269;30;20055;-83
2021/06/17 08:09:27;;;;;;;5.18;4.75;;;25.20;90.10;;;;;;4767734;30;20418;-84
2021/06/17 08:11:55;;;;;;;4.85;4.45;;;25.10;91.90;;;;;;4767539;30;20056;-84
2021/06/17 08:14:25;;;;;;;4.78;4.43;;;25.10;92.80;;;;;;4743689;30;20047;-83
2021/06/17 08:16:56;;;;;;;6.63;4.57;;;25.20;91.90;;;;;;4751649;30;20097;-84
2021/06/17 08:19:31;;;;;;;;;;;25.10;92.90;;;;;;4768050;30;20497;-84
2021/06/17 08:22:04;;;;;;;6.25;3.83;;;25.00;91.60;;;;;;4766247;30;19926;-86
2021/06/17 08:24:36;;;;;;;5.60;4.55;;;25.10;93.40;;;;;;4751680;30;20060;-84
2021/06/17 08:27:05;;;;;;;5.72;4.85;;;25.30;93.10;;;;;;4767761;30;20059;-84
2021/06/17 08:29:34;;;;;;;6.65;5.63;;;25.30;91.10;;;;;;4765922;30;20062;-85
2021/06/17 08:32:03;;;;;;;4.95;4.47;;;25.20;92.50;;;;;;4766723;30;20070;-86
2021/06/17 08:34:34;;;;;;;4.85;4.43;;;25.40;93.00;;;;;;4766484;30;20411;-88
2021/06/17 08:37:04;;;;;;;5.80;5.30;;;25.40;93.30;;;;;;4771604;30;20051;-85
2021/06/17 08:39:35;;;;;;;8.95;4.97;;;25.30;91.70;;;;;;4771684;30;20055;-85
2021/06/17 08:42:04;;;;;;;;;;;25.30;91.50;;;;;;4767296;30;20487;-85
2021/06/17 08:44:33;;;;;;;6.00;4.32;;;25.40;90.90;;;;;;4761089;30;19926;-84
2021/06/17 08:47:01;;;;;;;7.78;4.60;;;25.50;92.50;;;;;;4749471;30;20067;-84
2021/06/17 08:49:29;;;;;;;5.63;5.20;;;25.50;91.70;;;;;;4749006;30;20044;-85
2021/06/17 08:51:59;;;;;;;6.60;4.88;;;25.30;90.90;;;;;;4761408;30;20414;-84
2021/06/17 08:54:33;;;;;;;7.78;4.55;;;25.10;91.20;;;;;;4766696;30;20056;-85
2021/06/17 08:57:13;;;;;;;5.60;5.20;;;25.20;95.10;;;;;;4747756;30;20052;-83
2021/06/17 08:59:45;;;;;;;5.00;4.60;;;25.30;93.60;;;;;;4731585;30;20060;-84
2021/06/17 09:02:15;;;;;;;5.05;3.65;;;25.30;92.20;;;;;;4731206;30;20049;-84
2021/06/17 09:04:43;;;;;;;5.78;5.25;;;25.50;92.30;;;;;;4730548;30;20061;-83
2021/06/17 09:07:13;;;;;;;4.38;3.97;;;25.60;90.00;;;;;;4731507;30;20422;-82
2021/06/17 09:09:46;;;;;;;4.93;4.47;;;25.60;91.00;;;;;;4745032;30;20075;-85
2021/06/17 09:12:18;;;;;;;6.90;6.20;;;25.80;90.70;;;;;;4731338;30;20061;-87
2021/06/17 09:15:04;;;;;;;4.93;4.53;;;25.60;92.20;;;;;;4701772;30;20407;-85
2021/06/17 09:17:32;;;;;;;8.27;4.72;;;25.70;91.70;;;;;;4738112;30;20045;-87
2021/06/17 09:20:00;;;;;;;6.18;5.68;;;25.90;92.70;;;;;;4748425;30;20489;-85
2021/06/17 09:22:29;;;;;;;5.75;5.28;;;25.90;91.50;;;;;;4749197;30;20067;-86
2021/06/17 09:24:58;;;;;;;5.63;4.47;;;25.90;92.20;;;;;;4735084;30;20040;-85
2021/06/17 09:27:39;;;;;;;4.47;4.03;;;25.90;90.50;;;;;;4750977;30;20067;-80
2021/06/17 09:30:11;;;;;;;5.10;4.75;;;26.00;90.00;;;;;;4751130;30;20064;-79
2021/06/17 09:32:45;;;;;;;6.18;4.75;;;25.90;90.50;;;;;;4752396;30;20064;-81
2021/06/17 09:35:35;;;;;;;5.78;5.28;;;25.90;91.10;;;;;;4736241;30;20748;-81
2021/06/17 09:38:07;;;;;;;5.72;5.03;;;26.10;88.10;;;;;;4751287;30;20052;-80
2021/06/17 09:40:39;;;;;;;5.25;4.75;;;25.90;88.40;;;;;;4770598;30;20056;-80
2021/06/17 09:43:20;;;;;;;8.55;4.63;;;25.80;90.60;;;;;;4788308;29;20105;-80
2021/06/17 09:45:58;;;;;;;4.90;4.47;;;26.00;92.30;;;;;;4787597;30;20099;-79
2021/06/17 09:48:40;;;;;;;7.93;4.65;;;26.20;90.00;;;;;;4787278;30;20055;-79
2021/06/17 09:51:22;;;;;;;5.07;4.68;;;26.20;90.80;;;;;;4776913;30;20077;-79
2021/06/17 09:53:52;;;;;;;30.17;6.22;;;26.20;91.40;;;;;;4769522;30;20063;-80
2021/06/17 09:56:31;;;;;;;;;;;26.20;92.20;;;;;;4770680;30;20067;-80
2021/06/17 09:59:00;;;;;;;11.27;4.43;;;26.40;93.90;;;;;;4752669;30;19941;-81
2021/06/17 10:01:37;;;;;;;6.63;4.47;;;26.60;92.10;;;;;;4768876;30;20066;-80
2021/06/17 10:04:11;;;;;;;4.53;3.90;;;26.70;89.90;;;;;;4769706;30;20055;-80
2021/06/17 10:06:42;;;;;;;9.55;5.25;;;26.80;90.60;;;;;;4768253;30;20043;-80
2021/06/17 10:09:12;;;;;;;4.63;4.30;;;26.80;86.30;;;;;;4769425;30;20044;-80
2021/06/17 10:11:41;;;;;;;5.40;4.72;;;26.80;90.80;;;;;;4769158;30;20056;-79
2021/06/17 10:14:10;;;;;;;10.52;5.22;;;26.70;91.40;;;;;;4768939;30;20063;-81
2021/06/17 10:16:42;;;;;;;5.43;5.03;;;26.70;91.00;;;;;;4769272;30;20086;-80
2021/06/17 10:19:11;;;;;;;4.55;4.20;;;26.70;91.30;;;;;;4768496;30;20048;-80
2021/06/17 10:21:41;;;;;;;5.20;4.80;;;26.70;92.10;;;;;;4768020;30;20048;-82
2021/06/17 10:24:15;;;;;;;4.43;3.92;;;26.70;93.20;;;;;;4768923;30;20070;-78
2021/06/17 10:26:52;;;;;;;4.18;3.88;;;26.80;92.20;;;;;;4768910;30;20047;-80
2021/06/17 10:29:23;;;;;;;8.45;4.10;;;26.90;90.30;;;;;;4768880;30;20063;-79
2021/06/17 10:31:58;;;;;;;4.50;4.07;;;26.90;91.80;;;;;;4769349;30;20411;-79
2021/06/17 10:34:28;;;;;;;4.20;3.80;;;27.00;91.70;;;;;;4753048;30;20040;-79
2021/06/17 10:37:16;;;;;;;5.50;5.00;;;27.10;90.10;;;;;;4765510;30;20048;-79
2021/06/17 10:39:48;;;;;;;3.80;3.50;;;27.10;90.10;;;;;;4756809;30;20060;-80
2021/06/17 10:42:19;;;;;;;4.97;4.28;;;27.20;93.10;;;;;;4735460;30;20619;-81
2021/06/17 10:45:00;;;;;;;;;;;27.20;92.10;;;;;;4735132;30;20048;-80
2021/06/17 10:50:11;;;;;;;8.90;4.53;;;27.40;93.00;;;;;;4749954;30;20052;-80
2021/06/17 10:52:42;;;;;;;4.88;4.00;;;27.40;87.30;;;;;;4781561;29;20070;-79
2021/06/17 10:55:15;;;;;;;4.93;4.35;;;27.30;90.10;;;;;;4767879;30;20072;-78
2021/06/17 11:00:28;;;;;;;8.77;4.20;;;27.20;90.20;;;;;;4768667;30;20060;-78
2021/06/17 11:03:38;;;;;;;5.10;4.57;;;27.20;84.10;;;;;;4767917;30;20044;-81
2021/06/17 11:06:06;;;;;;;6.43;3.75;;;27.10;86.00;;;;;;4751696;30;20059;-87
2021/06/17 11:08:38;;;;;;;5.88;4.18;;;26.90;85.60;;;;;;4768585;29;20056;-81
2021/06/17 11:11:07;;;;;;;11.70;5.18;;;27.10;81.70;;;;;;4768947;30;20486;-81
2021/06/17 11:13:52;;;;;;;4.47;4.13;;;27.10;84.30;;;;;;4768474;30;20050;-79
2021/06/17 11:16:20;;;;;;;5.85;4.15;;;27.00;83.10;;;;;;4767869;30;20052;-83
2021/06/17 11:18:50;;;;;;;4.65;4.25;;;26.90;85.10;;;;;;4751383;30;20411;-85
2021/06/17 11:21:24;;;;;;;5.63;4.05;;;27.20;86.10;;;;;;4757696;30;20047;-79
2021/06/17 11:23:53;;;;;;;4.63;4.25;;;27.30;78.60;;;;;;4752694;30;20414;-84
2021/06/17 11:26:45;;;;;;;4.80;4.40;;;27.40;82.40;;;;;;4767986;30;20066;-83
2021/06/17 11:29:36;;;;;;;3.85;3.53;;;27.40;86.30;;;;;;4767711;30;20051;-81
2021/06/17 11:32:24;;;;;;;6.55;4.00;;;27.30;81.90;;;;;;4768092;29;20055;-81
2021/06/17 11:34:56;;;;;;;4.57;4.00;;;27.20;83.70;;;;;;4782238;30;20058;-90
2021/06/17 11:37:31;;;;;;;9.85;3.10;;;27.30;81.30;;;;;;4765795;30;20052;-86
2021/06/17 11:40:20;;;;;;;6.28;3.28;;;27.40;80.40;;;;;;4780785;30;20055;-88
2021/06/17 11:42:48;;;;;;;3.45;3.15;;;27.40;81.70;;;;;;4768044;30;20052;-91
2021/06/17 11:45:16;;;;;;;4.53;3.58;;;27.40;80.90;;;;;;4752587;30;20637;-87
2021/06/17 11:47:48;;;;;;;5.43;3.30;;;27.50;78.50;;;;;;4752724;30;20509;-90
2021/06/17 11:50:21;;;;;;;4.53;3.63;;;27.60;76.30;;;;;;4763140;30;20045;-85
2021/06/17 11:52:50;;;;;;;3.47;3.17;;;27.60;77.60;;;;;;4751245;30;20044;-84
2021/06/17 11:55:18;;;;;;;4.60;3.22;;;27.70;77.90;;;;;;4751366;30;20064;-88
2021/06/17 11:57:49;;;;;;;;;;;27.80;77.50;;;;;;4750238;30;20129;-88
2021/06/17 12:00:32;;;;;;;3.40;3.10;;;27.90;78.30;;;;;;4749464;30;19937;-88
2021/06/17 12:03:01;;;;;;;7.05;3.00;;;27.80;72.70;;;;;;4766240;30;20048;-87
2021/06/17 12:05:31;;;;;;;3.60;2.63;;;27.70;70.90;;;;;;4767729;30;20052;-87
2021/06/17 12:08:00;;;;;;;4.80;3.55;;;27.70;73.50;;;;;;4767854;30;20717;-90
2021/06/17 12:10:29;;;;;;;6.10;2.60;;;27.80;74.60;;;;;;4767418;30;20047;-91
2021/06/17 12:13:03;;;;;;;3.13;2.92;;;27.80;72.20;;;;;;4751663;30;20043;-89
2021/06/17 12:15:43;;;;;;;6.30;3.45;;;27.80;71.20;;;;;;4767441;30;20055;-88
2021/06/17 12:18:20;;;;;;;3.60;2.58;;;27.90;73.60;;;;;;4752114;30;20052;-87
2021/06/17 12:20:49;;;;;;;3.70;3.40;;;27.90;68.40;;;;;;4766066;30;20051;-86
2021/06/17 12:23:30;;;;;;;4.97;2.45;;;27.90;72.30;;;;;;4752155;30;20067;-82
2021/06/17 12:26:01;;;;;;;5.25;2.65;;;28.00;67.00;;;;;;4755790;30;20074;-86
2021/06/17 12:28:29;;;;;;;4.13;3.03;;;27.90;70.10;;;;;;4749425;30;20052;-86
2021/06/17 12:30:59;;;;;;;3.55;2.10;;;27.90;70.30;;;;;;4735200;30;20415;-86
2021/06/17 12:33:32;;;;;;;2.33;2.13;;;27.90;64.00;;;;;;4749632;30;20491;-88
2021/06/17 12:36:13;;;;;;;2.17;1.75;;;28.00;63.90;;;;;;4750562;30;20056;-90
2021/06/17 12:38:41;;;;;;;2.17;1.90;;;28.00;61.90;;;;;;4735151;30;20052;-85
2021/06/17 12:41:18;;;;;;;7.30;2.00;;;28.00;62.00;;;;;;4734439;30;20071;-90
2021/06/17 12:43:52;;;;;;;1.65;1.55;;;28.10;66.60;;;;;;4734388;30;20067;-83
2021/06/17 12:46:26;;;;;;;5.13;3.42;;;28.10;65.80;;;;;;4720331;30;20415;-83
2021/06/17 12:52:02;;;;;;;4.40;3.25;;;28.20;64.00;;;;;;4733427;30;20057;-86
2021/06/17 12:54:48;;;;;;;2.75;2.55;;;28.30;67.30;;;;;;4750529;30;20071;-88
2021/06/17 12:57:18;;;;;;;1.52;1.42;;;28.40;67.10;;;;;;4750089;30;20411;-87
2021/06/17 12:59:58;;;;;;;1.95;1.80;;;28.40;59.80;;;;;;4751247;30;20060;-86
2021/06/17 13:02:26;;;;;;;2.70;2.50;;;28.40;61.40;;;;;;4753283;30;20063;-89
2021/06/17 13:05:08;;;;;;;3.10;2.80;;;28.40;65.50;;;;;;4752483;30;20733;-86
2021/06/17 13:07:38;;;;;;;2.92;1.83;;;28.40;65.20;;;;;;4754188;30;20071;-85
2021/06/17 13:10:23;;;;;;;2.85;2.25;;;28.40;61.90;;;;;;4741673;30;20521;-83
2021/06/17 13:13:12;;;;;;;2.60;2.38;;;28.50;62.40;;;;;;4736965;30;20065;-85
2021/06/17 13:15:41;;;;;;;3.22;2.60;;;28.50;61.20;;;;;;4735214;30;20067;-85
2021/06/17 13:18:15;;;;;;;5.70;2.22;;;28.50;64.00;;;;;;4748540;30;20056;-88
2021/06/17 13:20:56;;;;;;;7.32;2.70;;;28.50;64.10;;;;;;4738073;30;20450;-89
2021/06/17 13:23:36;;;;;;;2.33;2.13;;;28.60;62.20;;;;;;4739350;30;20064;-85
2021/06/17 13:26:22;;;;;;;1.95;1.85;;;28.70;69.20;;;;;;4753322;30;20057;-87
2021/06/17 13:29:15;;;;;;;6.88;2.78;;;28.70;61.50;;;;;;4742486;30;20044;-87
2021/06/17 13:31:50;;;;;;;2.47;2.28;;;28.60;64.10;;;;;;4756038;30;20517;-88
2021/06/17 13:34:19;;;;;;;2.55;2.38;;;28.70;63.10;;;;;;4771309;29;20502;-87
2021/06/17 13:36:47;;;;;;;9.00;2.72;;;28.80;61.40;;;;;;4755191;30;20056;-86
2021/06/17 13:39:15;;;;;;;3.08;2.42;;;28.70;64.60;;;;;;4772789;30;20486;-86
2021/06/17 13:41:44;;;;;;;5.55;2.75;;;28.80;62.20;;;;;;4754958;30;20060;-85
2021/06/17 13:44:13;;;;;;;2.42;2.08;;;28.80;61.70;;;;;;4755633;30;20426;-83
2021/06/17 13:46:41;;;;;;;2.78;2.58;;;28.80;56.90;;;;;;4770055;30;20052;-85
2021/06/17 13:49:11;;;;;;;2.40;2.20;;;28.80;57.50;;;;;;4771241;30;20044;-87
2021/06/17 13:52:12;;;;;;;4.03;3.30;;;28.70;58.80;;;;;;4756519;30;20056;-86
2021/06/17 13:54:51;;;;;;;4.50;2.40;;;28.80;62.60;;;;;;4756512;30;20645;-88